createdAt,value
2023-04-17T00:02:22.457Z,33.17
2023-04-17T00:04:49.680Z,30.73
2023-04-17T00:07:16.636Z,44.20
2023-04-17T00:09:43.493Z,36.73
2023-04-17T00:12:10.466Z,33.23
2023-04-17T00:14:37.260Z,32.20
2023-04-17T00:17:04.066Z,31.03
2023-04-17T00:19:30.917Z,33.83
2023-04-17T00:21:57.735Z,34.50
2023-04-17T00:24:24.555Z,30.47
2023-04-17T00:26:51.694Z,32.57
2023-04-17T00:29:18.555Z,35.30
2023-04-17T00:31:45.571Z,32.90
2023-04-17T00:34:12.669Z,35.83
2023-04-17T00:36:39.509Z,39.63
2023-04-17T00:39:06.311Z,35.90
2023-04-17T00:41:33.354Z,33.27
2023-04-17T00:44:00.437Z,46.20
2023-04-17T00:46:27.797Z,42.30
2023-04-17T00:48:55.534Z,34.10
2023-04-17T00:51:22.481Z,38.07
2023-04-17T00:53:49.698Z,42.50
2023-04-17T00:56:16.446Z,34.93
2023-04-17T00:58:43.738Z,46.40
2023-04-17T01:01:10.926Z,43.20
2023-04-17T01:03:37.921Z,34.20
2023-04-17T01:06:06.513Z,36.57
2023-04-17T01:08:44.908Z,41.63
2023-04-17T01:11:12.138Z,44.03
2023-04-17T01:13:47.675Z,36.43
2023-04-17T01:16:15.020Z,40.17
2023-04-17T01:18:42.142Z,39.87
2023-04-17T01:21:09.340Z,41.63
2023-04-17T01:23:45.137Z,52.10
2023-04-17T01:26:17.575Z,36.30
2023-04-17T01:28:44.645Z,33.97
2023-04-17T01:31:16.025Z,43.70
2023-04-17T01:33:42.964Z,37.87
2023-04-17T01:36:10.128Z,42.03
2023-04-17T01:38:36.984Z,40.73
2023-04-17T01:41:09.702Z,34.27
2023-04-17T01:43:41.734Z,45.53
2023-04-17T01:46:09.067Z,39.67
2023-04-17T01:48:36.701Z,40.17
2023-04-17T01:51:03.941Z,43.17
2023-04-17T01:53:31.835Z,30.77
2023-04-17T01:55:58.905Z,37.50
2023-04-17T01:58:25.744Z,39.50
2023-04-17T02:00:52.677Z,34.77
2023-04-17T02:03:19.798Z,33.00
2023-04-17T02:05:47.487Z,37.63
2023-04-17T02:08:14.672Z,43.50
2023-04-17T02:10:42.640Z,36.53
2023-04-17T02:13:10.535Z,42.47
2023-04-17T02:15:38.311Z,42.27
2023-04-17T02:18:06.275Z,41.40
2023-04-17T02:20:34.128Z,39.80
2023-04-17T02:23:02.111Z,37.83
2023-04-17T02:25:29.449Z,37.77
2023-04-17T02:27:56.754Z,40.97
2023-04-17T02:30:24.954Z,41.00
2023-04-17T02:32:53.289Z,50.23
2023-04-17T02:35:23.023Z,30.33
2023-04-17T02:37:49.815Z,37.97
2023-04-17T02:40:16.915Z,35.87
2023-04-17T02:42:43.836Z,39.43
2023-04-17T02:45:11.110Z,42.03
2023-04-17T02:47:38.444Z,42.70
2023-04-17T02:50:06.303Z,41.40
2023-04-17T02:52:33.715Z,35.20
2023-04-17T02:55:00.590Z,43.57
2023-04-17T02:57:27.463Z,43.27
2023-04-17T02:59:54.268Z,40.80
2023-04-17T04:00:31.836Z,31.70
2023-04-17T04:02:58.747Z,44.57
2023-04-17T04:05:25.878Z,41.17
2023-04-17T04:07:52.808Z,43.90
2023-04-17T04:10:19.543Z,49.33
2023-04-17T04:12:46.309Z,45.73
2023-04-17T04:15:13.076Z,33.83
2023-04-17T04:17:39.900Z,41.00
2023-04-17T04:20:09.112Z,46.97
2023-04-17T04:22:36.216Z,38.23
2023-04-17T04:25:03.067Z,43.40
2023-04-17T04:27:32.848Z,44.50
2023-04-17T04:30:01.778Z,36.77
2023-04-17T04:32:29.088Z,45.70
2023-04-17T04:34:58.568Z,47.93
2023-04-17T04:37:30.122Z,40.93
2023-04-17T04:40:02.063Z,35.33
2023-04-17T04:42:29.434Z,53.97
2023-04-17T04:44:56.344Z,40.73
2023-04-17T04:47:23.199Z,39.80
2023-04-17T04:49:50.022Z,42.67
2023-04-17T04:52:16.854Z,40.27
2023-04-17T04:54:43.968Z,43.93
2023-04-17T04:57:11.185Z,55.47
2023-04-17T04:59:39.085Z,46.07
2023-04-17T05:02:06.195Z,47.70
2023-04-17T05:04:33.532Z,43.07
2023-04-17T05:07:00.607Z,43.87
2023-04-17T05:09:27.837Z,44.00
2023-04-17T05:11:54.711Z,48.30
2023-04-17T05:14:21.578Z,38.67
2023-04-17T05:16:48.490Z,46.17
2023-04-17T05:19:15.735Z,39.17
2023-04-17T05:21:42.569Z,40.10
2023-04-17T05:24:09.473Z,43.50
2023-04-17T05:26:36.256Z,41.70
2023-04-17T05:29:03.089Z,41.90
2023-04-17T05:31:30.133Z,45.43
2023-04-17T05:33:57.014Z,44.83
2023-04-17T05:36:23.777Z,48.87
2023-04-17T05:38:50.565Z,45.20
2023-04-17T05:41:17.367Z,37.83
2023-04-17T05:43:44.391Z,46.20
2023-04-17T05:46:11.207Z,35.50
2023-04-17T05:48:38.018Z,44.63
2023-04-17T05:51:04.984Z,42.63
2023-04-17T05:53:32.026Z,40.20
2023-04-17T05:55:58.906Z,44.80
2023-04-17T05:58:25.702Z,45.87
2023-04-17T06:00:52.811Z,42.77
2023-04-17T06:03:20.854Z,41.53
2023-04-17T06:05:48.339Z,46.40
2023-04-17T06:08:15.576Z,44.27
2023-04-17T06:10:42.589Z,44.10
2023-04-17T06:13:09.407Z,52.57
2023-04-17T06:15:36.599Z,42.33
2023-04-17T06:18:03.737Z,50.50
2023-04-17T06:20:30.582Z,40.57
2023-04-17T06:22:58.832Z,42.03
2023-04-17T06:25:26.230Z,53.83
2023-04-17T06:27:53.378Z,51.53
2023-04-17T06:30:20.541Z,38.90
2023-04-17T06:32:47.425Z,36.93
2023-04-17T06:35:14.272Z,37.73
2023-04-17T06:37:41.140Z,35.37
2023-04-17T06:40:08.680Z,48.07
2023-04-17T06:42:35.864Z,45.30
2023-04-17T06:45:02.772Z,34.83
2023-04-17T06:47:29.676Z,42.03
2023-04-17T06:49:58.079Z,33.90
2023-04-17T06:52:24.990Z,33.77
2023-04-17T06:54:55.359Z,34.73
2023-04-17T06:57:22.951Z,41.23
2023-04-17T06:59:49.803Z,40.93
2023-04-17T07:02:17.873Z,37.17
2023-04-17T07:04:44.976Z,36.83
2023-04-17T07:07:11.915Z,42.57
2023-04-17T07:09:39.137Z,32.13
2023-04-17T07:12:05.995Z,35.77
2023-04-17T07:14:33.495Z,30.50
2023-04-17T07:17:00.636Z,38.73
2023-04-17T07:19:27.376Z,42.97
2023-04-17T07:21:54.184Z,33.97
2023-04-17T07:24:21.195Z,28.90
2023-04-17T07:26:49.587Z,41.80
2023-04-17T07:29:16.528Z,29.97
2023-04-17T07:31:43.633Z,35.80
2023-04-17T07:34:10.648Z,34.20
2023-04-17T07:36:37.511Z,29.97
2023-04-17T07:39:04.784Z,32.53
2023-04-17T07:41:31.613Z,40.03
2023-04-17T07:43:59.197Z,32.50
2023-04-17T07:46:26.229Z,31.27
2023-04-17T07:48:53.349Z,32.30
2023-04-17T07:51:20.320Z,23.90
2023-04-17T07:53:47.784Z,32.73
2023-04-17T07:56:14.651Z,20.83
2023-04-17T07:58:42.094Z,23.30
2023-04-17T08:01:09.086Z,22.33
2023-04-17T08:03:36.361Z,21.97
2023-04-17T08:06:03.373Z,19.67
2023-04-17T08:08:30.572Z,21.37
2023-04-17T08:11:00.458Z,21.73
2023-04-17T08:13:27.289Z,23.43
2023-04-17T08:15:54.646Z,27.30
2023-04-17T08:18:21.585Z,19.90
2023-04-17T08:20:48.441Z,23.13
2023-04-17T08:23:15.560Z,18.47
2023-04-17T08:25:42.364Z,20.87
2023-04-17T08:28:09.298Z,20.67
2023-04-17T08:30:36.472Z,19.53
2023-04-17T08:33:03.390Z,18.10
2023-04-17T08:35:30.472Z,23.10
2023-04-17T08:38:00.133Z,20.37
2023-04-17T08:40:27.067Z,23.93
2023-04-17T08:42:54.737Z,39.67
2023-04-17T08:45:24.412Z,20.77
2023-04-17T08:47:51.388Z,21.30
2023-04-17T08:50:19.911Z,16.10
2023-04-17T08:52:49.529Z,18.00
2023-04-17T08:55:18.756Z,19.30
2023-04-17T08:58:03.598Z,17.80
2023-04-17T09:00:34.310Z,19.70
2023-04-17T09:03:03.762Z,17.20
2023-04-17T09:05:36.905Z,13.37
2023-04-17T09:08:12.451Z,15.67
2023-04-17T09:10:41.310Z,12.33
2023-04-17T09:13:08.948Z,14.87
2023-04-17T09:15:36.723Z,14.93
2023-04-17T09:18:05.606Z,13.63
2023-04-17T09:20:32.828Z,13.03
2023-04-17T09:23:02.117Z,13.80
2023-04-17T09:25:29.071Z,21.13
2023-04-17T09:28:11.502Z,18.10
2023-04-17T09:30:39.363Z,18.30
2023-04-17T09:33:07.953Z,17.83
2023-04-17T09:35:40.062Z,15.87
2023-04-17T09:38:07.548Z,14.17
2023-04-17T09:40:42.854Z,11.30
2023-04-17T09:43:10.678Z,15.80
2023-04-17T09:45:41.698Z,16.23
2023-04-17T09:48:11.176Z,12.70
2023-04-17T09:50:39.522Z,12.50
2023-04-17T09:53:07.548Z,11.47
2023-04-17T09:55:36.418Z,11.50
2023-04-17T09:58:06.136Z,10.70
2023-04-17T10:00:33.190Z,9.70
2023-04-17T10:03:00.574Z,8.23
2023-04-17T10:05:29.854Z,8.13
2023-04-17T10:07:57.335Z,8.33
2023-04-17T10:10:26.625Z,10.20
2023-04-17T10:12:56.399Z,8.03
2023-04-17T10:15:25.604Z,6.23
2023-04-17T10:17:56.594Z,5.97
2023-04-17T10:20:23.551Z,6.37
2023-04-17T10:22:54.686Z,6.83
2023-04-17T10:25:27.609Z,7.00
2023-04-17T10:27:54.582Z,7.60
2023-04-17T10:30:22.737Z,6.80
2023-04-17T10:33:13.580Z,8.77
2023-04-17T10:35:40.678Z,6.57
2023-04-17T10:38:08.738Z,7.93
2023-04-17T10:40:36.505Z,6.80
2023-04-17T10:43:11.318Z,7.37
2023-04-17T10:46:09.160Z,7.10
2023-04-17T10:48:39.063Z,6.40
2023-04-17T10:51:21.387Z,8.23
2023-04-17T10:53:49.770Z,5.67
2023-04-17T10:56:19.739Z,6.40
2023-04-17T10:59:01.785Z,6.73
2023-04-17T11:01:32.402Z,6.00
2023-04-17T11:03:59.858Z,6.00
2023-04-17T11:06:28.909Z,5.83
2023-04-17T11:08:57.992Z,5.30
2023-04-17T11:11:35.062Z,5.73
2023-04-17T11:14:14.212Z,6.00
2023-04-17T11:16:43.349Z,5.70
2023-04-17T11:19:13.141Z,7.60
2023-04-17T11:21:44.182Z,6.20
2023-04-17T11:24:11.249Z,7.43
2023-04-17T11:26:47.179Z,5.70
2023-04-17T11:29:16.823Z,6.07
2023-04-17T11:31:46.042Z,5.90
2023-04-17T11:34:16.169Z,4.83
2023-04-17T11:36:59.505Z,7.90
2023-04-17T11:39:29.837Z,5.23
2023-04-17T11:41:57.194Z,4.73
2023-04-17T11:44:25.024Z,4.83
2023-04-17T11:46:53.553Z,4.37
2023-04-17T11:49:36.096Z,4.00
2023-04-17T11:52:05.281Z,3.50
2023-04-17T11:54:37.364Z,4.17
2023-04-17T11:57:06.315Z,6.47
2023-04-17T11:59:35.082Z,3.80
2023-04-17T12:02:03.538Z,2.93
2023-04-17T12:04:34.193Z,4.40
2023-04-17T12:07:02.826Z,5.20
2023-04-17T12:09:31.944Z,5.33
2023-04-17T12:12:00.051Z,2.93
2023-04-17T12:14:27.125Z,3.00
2023-04-17T12:16:53.986Z,3.47
2023-04-17T12:19:21.457Z,2.87
2023-04-17T12:21:48.415Z,3.50
2023-04-17T12:24:18.189Z,5.33
2023-04-17T12:26:49.660Z,1.87
2023-04-17T12:29:17.819Z,2.10
2023-04-17T12:31:45.671Z,2.63
2023-04-17T12:34:12.840Z,1.77
2023-04-17T12:36:39.937Z,2.57
2023-04-17T12:39:06.819Z,3.30
2023-04-17T12:41:33.628Z,3.20
2023-04-17T12:44:03.142Z,1.87
2023-04-17T12:46:30.993Z,1.73
2023-04-17T12:48:59.410Z,1.73
2023-04-17T12:51:28.025Z,4.60
2023-04-17T12:53:55.880Z,4.30
2023-04-17T12:56:22.908Z,1.97
2023-04-17T12:58:49.796Z,5.70
2023-04-17T13:01:16.699Z,2.40
2023-04-17T13:03:43.892Z,4.00
2023-04-17T13:06:11.016Z,2.83
2023-04-17T13:08:37.796Z,6.67
2023-04-17T13:11:04.736Z,3.30
2023-04-17T13:13:31.592Z,3.20
2023-04-17T13:15:58.721Z,3.63
2023-04-17T13:18:26.402Z,2.90
2023-04-17T13:20:53.142Z,3.77
2023-04-17T13:23:20.033Z,3.43
2023-04-17T13:25:47.455Z,2.10
2023-04-17T13:28:14.309Z,4.63
2023-04-17T13:30:41.237Z,2.10
2023-04-17T13:33:08.287Z,1.60
2023-04-17T13:35:35.251Z,1.77
2023-04-17T13:38:03.120Z,1.70
2023-04-17T13:40:30.890Z,1.87
2023-04-17T13:42:58.588Z,2.43
2023-04-17T13:45:25.404Z,2.70
2023-04-17T13:47:52.292Z,2.73
2023-04-17T13:50:19.202Z,4.67
2023-04-17T13:52:45.995Z,8.23
2023-04-17T13:55:14.697Z,6.43
2023-04-17T13:57:41.616Z,10.87
2023-04-17T14:00:09.095Z,9.07
2023-04-17T14:02:36.165Z,2.73
2023-04-17T14:05:03.456Z,4.00
2023-04-17T14:07:30.603Z,4.07
2023-04-17T14:09:57.434Z,2.63
2023-04-17T14:12:24.273Z,2.67
2023-04-17T14:14:51.148Z,3.47
2023-04-17T14:17:18.261Z,2.40
2023-04-17T14:19:45.111Z,2.97
2023-04-17T14:22:11.908Z,3.13
2023-04-17T14:24:38.684Z,3.50
2023-04-17T14:27:05.757Z,2.40
2023-04-17T14:29:32.588Z,4.10
2023-04-17T14:31:59.450Z,4.27
2023-04-17T14:34:26.289Z,4.40
2023-04-17T14:36:53.293Z,4.10
2023-04-17T14:39:20.262Z,3.97
2023-04-17T14:41:47.112Z,9.73
2023-04-17T14:44:14.519Z,5.33
2023-04-17T14:46:41.718Z,4.40
2023-04-17T14:49:09.193Z,5.03
2023-04-17T14:51:36.170Z,4.33
2023-04-17T14:54:03.075Z,4.03
2023-04-17T14:56:30.001Z,8.97
2023-04-17T14:58:56.861Z,5.33
2023-04-17T15:01:23.772Z,4.40
2023-04-17T15:03:51.172Z,4.57
2023-04-17T15:06:18.876Z,5.20
2023-04-17T15:08:46.313Z,6.87
2023-04-17T15:11:13.184Z,6.00
2023-04-17T15:13:40.582Z,4.00
2023-04-17T15:16:09.905Z,6.73
2023-04-17T15:18:39.403Z,4.37
2023-04-17T15:21:06.818Z,6.50
2023-04-17T15:23:34.771Z,6.10
2023-04-17T15:26:01.895Z,4.93
2023-04-17T15:28:28.837Z,4.30
2023-04-17T15:30:56.322Z,5.53
2023-04-17T15:33:23.194Z,4.80
2023-04-17T15:35:55.425Z,5.43
2023-04-17T15:38:22.381Z,4.77
2023-04-17T15:40:49.243Z,4.40
2023-04-17T15:43:16.074Z,5.10
2023-04-17T15:45:43.351Z,4.30
2023-04-17T15:48:10.564Z,5.57
2023-04-17T15:50:37.815Z,3.40
2023-04-17T15:53:04.608Z,4.43
2023-04-17T15:55:33.245Z,5.57
2023-04-17T15:58:00.261Z,4.40
2023-04-17T16:00:27.270Z,5.50
2023-04-17T16:02:54.226Z,4.87
2023-04-17T16:05:21.347Z,6.93
2023-04-17T16:07:48.290Z,5.07
2023-04-17T16:10:15.704Z,4.60
2023-04-17T16:12:43.371Z,5.43
2023-04-17T16:15:12.462Z,3.77
2023-04-17T16:17:39.580Z,4.10
2023-04-17T16:20:07.586Z,9.60
2023-04-17T16:22:34.486Z,3.73
2023-04-17T16:25:02.601Z,4.03
2023-04-17T16:27:30.300Z,4.90
2023-04-17T16:29:57.190Z,4.70
2023-04-17T16:32:25.443Z,4.40
2023-04-17T16:34:52.794Z,4.67
2023-04-17T16:37:19.758Z,5.83
2023-04-17T16:39:47.323Z,5.00
2023-04-17T16:42:14.650Z,3.67
2023-04-17T16:44:41.698Z,4.00
2023-04-17T16:47:13.862Z,2.50
2023-04-17T16:49:42.325Z,4.63
2023-04-17T16:52:09.531Z,2.37
2023-04-17T16:54:36.336Z,2.47
2023-04-17T16:57:03.632Z,2.30
2023-04-17T16:59:37.382Z,1.57
2023-04-17T17:02:05.476Z,4.53
2023-04-17T17:04:32.593Z,2.27
2023-04-17T17:06:59.433Z,3.20
2023-04-17T17:09:26.554Z,5.13
2023-04-17T17:11:53.542Z,3.83
2023-04-17T17:14:20.585Z,9.20
2023-04-17T17:16:47.546Z,6.10
2023-04-17T17:19:14.939Z,3.63
2023-04-17T17:21:42.028Z,4.43
2023-04-17T17:24:09.042Z,4.00
2023-04-17T17:26:37.037Z,5.10
2023-04-17T17:29:04.827Z,5.90
2023-04-17T17:31:33.933Z,6.23
2023-04-17T17:34:12.024Z,5.87
2023-04-17T17:36:49.494Z,6.50
2023-04-17T17:39:16.734Z,4.03
2023-04-17T17:41:45.807Z,4.17
2023-04-17T17:44:14.198Z,4.90
2023-04-17T17:46:41.383Z,4.60
2023-04-17T17:49:08.342Z,4.50
2023-04-17T17:51:35.394Z,5.77
2023-04-17T17:54:02.745Z,3.80
2023-04-17T17:56:29.748Z,6.27
2023-04-17T17:58:56.696Z,4.27
2023-04-17T18:01:25.142Z,5.00
2023-04-17T18:03:53.187Z,4.70
2023-04-17T18:06:20.893Z,3.50
2023-04-17T18:08:48.086Z,5.83
2023-04-17T18:11:15.215Z,7.60
2023-04-17T18:13:42.365Z,4.07
2023-04-17T18:16:09.358Z,4.40
2023-04-17T18:18:36.668Z,3.73
2023-04-17T18:21:07.779Z,3.10
2023-04-17T18:23:35.095Z,3.27
2023-04-17T18:26:03.537Z,3.57
2023-04-17T18:28:30.938Z,4.53
2023-04-17T18:30:57.850Z,4.27
2023-04-17T18:33:25.057Z,4.20
2023-04-17T18:35:51.984Z,5.30
2023-04-17T18:38:18.887Z,3.60
2023-04-17T18:40:45.795Z,6.50
2023-04-17T18:43:12.853Z,6.93
2023-04-17T18:45:39.812Z,5.80
2023-04-17T18:48:06.883Z,8.20
2023-04-17T18:50:33.815Z,11.27
2023-04-17T18:53:00.716Z,15.67
2023-04-17T18:55:29.845Z,11.13
2023-04-17T18:57:56.907Z,8.80
2023-04-17T19:00:23.858Z,6.90
2023-04-17T19:02:50.810Z,5.70
2023-04-17T19:05:17.843Z,6.03
2023-04-17T19:07:44.793Z,5.10
2023-04-17T19:10:11.703Z,5.33
2023-04-17T19:12:38.669Z,9.63
2023-04-17T19:15:06.625Z,8.87
2023-04-17T19:17:33.596Z,5.60
2023-04-17T19:20:00.554Z,6.33
2023-04-17T19:22:27.469Z,9.33
2023-04-17T19:24:54.328Z,7.00
2023-04-17T19:27:22.793Z,9.20
2023-04-17T19:29:49.624Z,8.83
2023-04-17T19:32:16.698Z,6.27
2023-04-17T19:34:44.431Z,7.53
2023-04-17T19:37:11.416Z,9.13
2023-04-17T19:39:38.425Z,10.37
2023-04-17T19:42:05.785Z,9.20
2023-04-17T19:44:32.655Z,7.77
2023-04-17T19:46:59.476Z,8.67
2023-04-17T19:49:26.440Z,10.23
2023-04-17T19:51:53.312Z,8.20
2023-04-17T19:54:20.102Z,9.10
2023-04-17T19:56:47.006Z,7.70
2023-04-17T19:59:14.297Z,8.23
2023-04-17T20:01:43.625Z,7.17
2023-04-17T20:04:11.301Z,7.80
2023-04-17T20:06:39.536Z,8.73
2023-04-17T20:09:06.579Z,6.70
2023-04-17T20:11:33.629Z,7.23
2023-04-17T20:14:00.554Z,7.30
2023-04-17T20:16:27.630Z,7.87
2023-04-17T20:18:56.582Z,7.93
2023-04-17T20:21:23.922Z,9.60
2023-04-17T20:23:50.861Z,10.40
2023-04-17T20:26:17.851Z,9.90
2023-04-17T20:28:44.849Z,10.27
2023-04-17T20:31:12.130Z,8.60
2023-04-17T20:33:39.068Z,7.37
2023-04-17T20:36:06.276Z,9.03
2023-04-17T20:38:33.451Z,8.00
2023-04-17T20:41:00.984Z,7.37
2023-04-17T20:43:27.935Z,8.13
2023-04-17T20:45:55.151Z,8.17
2023-04-17T20:48:22.150Z,9.40
2023-04-17T20:50:49.014Z,8.20
2023-04-17T20:53:15.885Z,8.67
2023-04-17T20:55:42.793Z,8.73
2023-04-17T20:58:10.034Z,8.70
2023-04-17T21:00:41.957Z,10.30
2023-04-17T21:03:15.418Z,10.07
2023-04-17T21:05:42.833Z,10.20
2023-04-17T21:08:09.800Z,11.50
2023-04-17T21:10:36.757Z,12.27
2023-04-17T21:13:03.542Z,12.80
2023-04-17T21:15:31.077Z,11.90
2023-04-17T21:17:58.131Z,12.40
2023-04-17T21:20:25.127Z,12.07
2023-04-17T21:22:52.103Z,14.93
2023-04-17T21:25:19.104Z,13.13
2023-04-17T21:27:46.052Z,12.93
2023-04-17T21:30:13.072Z,14.10
2023-04-17T21:32:40.657Z,12.63
2023-04-17T21:35:08.174Z,15.13
2023-04-17T21:37:35.037Z,13.87
2023-04-17T21:40:01.947Z,15.17
2023-04-17T21:42:28.942Z,18.50
2023-04-17T21:44:55.753Z,16.67
2023-04-17T21:47:23.841Z,17.13
2023-04-17T21:49:51.101Z,16.93
2023-04-17T21:52:17.995Z,21.43
2023-04-17T21:54:44.912Z,16.90
2023-04-17T21:57:11.865Z,22.40
2023-04-17T21:59:38.740Z,16.57
2023-04-17T22:02:05.687Z,18.40
2023-04-17T22:04:32.690Z,18.37
2023-04-17T22:06:59.790Z,17.20
2023-04-17T22:09:28.971Z,23.07
2023-04-17T22:11:56.588Z,17.50
2023-04-17T22:14:23.552Z,22.50
2023-04-17T22:16:50.400Z,19.60
2023-04-17T22:19:17.240Z,28.63
2023-04-17T22:21:44.108Z,25.00
2023-04-17T22:24:11.427Z,22.70
2023-04-17T22:26:38.305Z,20.73
2023-04-17T22:29:05.070Z,24.43
2023-04-17T22:31:32.025Z,21.43
2023-04-17T22:33:59.220Z,25.37
2023-04-17T22:36:39.140Z,21.33
2023-04-17T22:39:05.983Z,23.80
2023-04-17T22:41:32.771Z,26.33
2023-04-17T22:43:59.546Z,30.10
2023-04-17T22:46:26.366Z,26.73
2023-04-17T22:48:53.477Z,26.57
2023-04-17T22:51:20.932Z,27.00
2023-04-17T22:53:47.775Z,29.17
2023-04-17T22:56:14.694Z,33.20
2023-04-17T22:58:41.547Z,29.10
2023-04-17T23:01:08.509Z,30.03
2023-04-17T23:03:35.583Z,33.87
2023-04-17T23:06:03.178Z,34.70
2023-04-17T23:08:30.850Z,34.73
2023-04-17T23:10:59.781Z,34.87
2023-04-17T23:13:27.588Z,32.70
2023-04-17T23:15:54.569Z,29.70
2023-04-17T23:18:21.651Z,34.90
2023-04-17T23:20:48.562Z,28.63
2023-04-17T23:23:15.517Z,35.10
2023-04-17T23:25:42.455Z,38.20
2023-04-17T23:28:09.489Z,35.53
2023-04-17T23:30:36.999Z,31.80
2023-04-17T23:33:04.379Z,32.87
2023-04-17T23:35:31.263Z,35.00
2023-04-17T23:37:58.062Z,33.17
2023-04-17T23:40:26.272Z,36.27
2023-04-17T23:42:53.186Z,35.83
2023-04-17T23:45:20.346Z,34.47
2023-04-17T23:47:47.331Z,34.57
2023-04-17T23:50:14.314Z,35.03
2023-04-17T23:52:41.203Z,32.03
2023-04-17T23:55:08.454Z,34.33
2023-04-17T23:57:37.738Z,32.20
